Time;durP1;ratioP1;P1;durP2;ratioP2;P2;SDS_P1;SDS_P2;PMS_P1;PMS_P2;Temp;Humidity;BMP_temperature;BMP_pressure;BME280_temperature;BME280_humidity;BME280_pressure;Samples;Min_cycle;Max_cycle;Signal;HPM_P1;HPM_P2
2024/01/20 00:00:43;;;;;;;10.77;9.83;;;21.50;46.20;;;;;;5052732;28;20449;-63
2024/01/20 00:03:12;;;;;;;11.23;10.20;;;21.50;46.20;;;;;;5053590;28;20429;-63
2024/01/20 00:05:42;;;;;;;12.17;10.97;;;21.50;46.20;;;;;;5034818;28;20464;-63
2024/01/20 00:08:10;;;;;;;13.03;11.80;;;21.50;46.20;;;;;;5047815;28;20497;-63
2024/01/20 00:10:39;;;;;;;11.90;10.43;;;21.50;46.20;;;;;;5053179;28;20936;-63
2024/01/20 00:13:07;;;;;;;12.10;11.00;;;21.40;46.20;;;;;;5039737;28;20444;-63
2024/01/20 00:15:36;;;;;;;13.47;11.13;;;21.40;46.20;;;;;;5034659;28;20887;-63
2024/01/20 00:18:05;;;;;;;10.90;10.00;;;21.40;46.20;;;;;;5034075;28;20872;-63
2024/01/20 00:20:34;;;;;;;11.17;10.20;;;21.40;46.20;;;;;;5036006;28;20474;-63
2024/01/20 00:23:03;;;;;;;11.20;10.13;;;21.40;46.20;;;;;;5040218;28;20432;-63
2024/01/20 00:25:33;;;;;;;10.30;9.30;;;21.40;46.20;;;;;;5064032;28;20455;-63
2024/01/20 00:28:03;;;;;;;10.30;9.30;;;21.40;46.20;;;;;;5054390;28;20483;-63
2024/01/20 00:30:32;;;;;;;9.97;9.10;;;21.30;46.20;;;;;;5044469;28;20459;-63
2024/01/20 00:33:00;;;;;;;12.63;11.47;;;21.30;46.20;;;;;;5046395;28;20445;-63
2024/01/20 00:35:28;;;;;;;10.30;9.37;;;21.30;46.20;;;;;;5033356;28;21016;-63
2024/01/20 00:37:57;;;;;;;10.50;9.40;;;21.30;46.20;;;;;;5035705;28;20880;-62
2024/01/20 00:40:27;;;;;;;9.43;8.53;;;21.30;46.20;;;;;;5049374;28;20461;-62
2024/01/20 00:42:55;;;;;;;10.13;9.13;;;21.30;46.20;;;;;;5053811;28;20435;-63
2024/01/20 00:45:24;;;;;;;10.77;9.87;;;21.30;46.30;;;;;;5040705;28;20457;-63
2024/01/20 00:47:52;;;;;;;9.73;8.83;;;21.30;46.30;;;;;;5040709;28;20459;-63
2024/01/20 00:50:21;;;;;;;9.60;8.70;;;21.20;46.30;;;;;;5046920;28;20462;-63
2024/01/20 00:52:49;;;;;;;10.13;9.17;;;21.20;46.30;;;;;;5051761;28;20434;-63
2024/01/20 00:55:17;;;;;;;9.37;8.47;;;21.20;46.40;;;;;;5055823;28;20958;-63
2024/01/20 00:57:47;;;;;;;10.57;9.57;;;21.20;46.30;;;;;;5052244;28;20494;-63
2024/01/20 01:00:15;;;;;;;8.60;7.90;;;21.20;46.40;;;;;;5034124;28;20479;-63
2024/01/20 01:02:44;;;;;;;10.33;8.30;;;21.20;46.40;;;;;;5047109;28;20451;-63
2024/01/20 01:05:12;;;;;;;9.53;8.73;;;21.20;46.40;;;;;;5058261;28;20449;-63
2024/01/20 01:07:41;;;;;;;9.00;8.10;;;21.20;46.40;;;;;;5068901;28;20534;-63
2024/01/20 01:10:09;;;;;;;9.13;8.33;;;21.20;46.40;;;;;;5053627;28;20465;-63
2024/01/20 01:12:39;;;;;;;8.70;8.00;;;21.20;46.40;;;;;;5053016;28;20439;-63
2024/01/20 01:15:10;;;;;;;9.73;9.03;;;21.20;46.40;;;;;;5050276;28;20875;-63
2024/01/20 01:17:38;;;;;;;9.00;8.20;;;21.20;46.40;;;;;;5052691;28;20451;-63
2024/01/20 01:20:08;;;;;;;9.50;8.80;;;21.20;46.40;;;;;;5048678;28;20457;-63
2024/01/20 01:22:37;;;;;;;9.03;8.13;;;21.20;46.40;;;;;;5053005;28;20522;-63
2024/01/20 01:25:06;;;;;;;8.30;7.50;;;21.20;46.40;;;;;;5053883;28;20441;-63
2024/01/20 01:27:34;;;;;;;8.87;8.07;;;21.20;46.40;;;;;;5053545;28;20865;-63
2024/01/20 01:30:02;;;;;;;8.53;7.73;;;21.10;46.40;;;;;;5085313;28;20495;-62
2024/01/20 01:32:31;;;;;;;9.53;8.63;;;21.10;46.40;;;;;;5053253;28;20548;-63
2024/01/20 01:34:59;;;;;;;7.77;7.07;;;21.10;46.40;;;;;;5052659;28;20516;-63
2024/01/20 01:37:28;;;;;;;8.60;7.90;;;21.10;46.40;;;;;;5052967;28;20455;-63
2024/01/20 01:39:56;;;;;;;7.37;6.77;;;21.10;46.40;;;;;;5052668;28;20483;-63
2024/01/20 01:42:24;;;;;;;8.63;7.83;;;21.10;46.40;;;;;;5053017;28;20443;-63
2024/01/20 01:44:53;;;;;;;10.13;7.67;;;21.10;46.40;;;;;;5059508;28;20490;-63
2024/01/20 01:47:22;;;;;;;7.90;7.30;;;21.10;46.40;;;;;;5051553;28;20513;-63
2024/01/20 01:49:52;;;;;;;8.07;7.37;;;21.10;46.40;;;;;;5052307;28;20413;-63
2024/01/20 01:52:23;;;;;;;7.23;6.57;;;21.10;46.40;;;;;;5053558;28;20471;-63
2024/01/20 01:54:52;;;;;;;7.80;7.00;;;21.00;46.40;;;;;;5035500;28;20817;-63
2024/01/20 01:57:22;;;;;;;7.33;6.63;;;21.00;46.30;;;;;;5032741;28;20416;-63
2024/01/20 01:59:51;;;;;;;7.17;6.57;;;21.00;46.40;;;;;;5043642;28;20479;-63
2024/01/20 02:02:19;;;;;;;7.27;6.67;;;21.00;46.40;;;;;;5050704;28;20496;-63
2024/01/20 02:04:47;;;;;;;7.17;6.50;;;21.00;46.40;;;;;;5052032;28;20928;-63
2024/01/20 02:07:17;;;;;;;7.30;6.70;;;21.00;46.40;;;;;;5041165;28;20956;-62
2024/01/20 02:09:46;;;;;;;7.13;6.53;;;21.00;46.40;;;;;;5051799;28;20455;-63
2024/01/20 02:12:15;;;;;;;6.50;5.90;;;21.00;46.40;;;;;;5053105;28;20434;-63
2024/01/20 02:14:45;;;;;;;6.60;5.93;;;21.00;46.30;;;;;;5052132;28;20421;-62
2024/01/20 02:17:13;;;;;;;7.33;6.70;;;21.00;46.40;;;;;;5052351;28;20450;-62
2024/01/20 02:19:42;;;;;;;7.30;6.60;;;20.90;46.30;;;;;;5033433;28;20473;-63
2024/01/20 02:22:12;;;;;;;6.50;5.90;;;20.90;46.30;;;;;;5052952;28;20923;-63
2024/01/20 02:24:44;;;;;;;6.77;6.27;;;20.90;46.40;;;;;;5052168;28;20983;-63
2024/01/20 02:27:12;;;;;;;7.53;6.83;;;20.90;46.30;;;;;;5042839;28;20432;-63
2024/01/20 02:29:41;;;;;;;7.33;5.60;;;20.90;46.40;;;;;;5032245;28;20449;-63
2024/01/20 02:32:09;;;;;;;6.43;5.83;;;20.90;46.40;;;;;;5038911;28;20440;-62
2024/01/20 02:34:39;;;;;;;6.43;5.83;;;20.90;46.40;;;;;;5050677;28;20441;-63
2024/01/20 02:37:08;;;;;;;7.20;5.73;;;20.90;46.40;;;;;;5049980;28;20457;-63
2024/01/20 02:39:37;;;;;;;6.47;5.87;;;20.90;46.40;;;;;;5051607;28;20578;-63
2024/01/20 02:42:08;;;;;;;6.47;5.87;;;20.90;46.40;;;;;;5052187;28;20427;-63
2024/01/20 02:44:36;;;;;;;6.00;5.40;;;20.90;46.40;;;;;;5043269;28;20547;-63
2024/01/20 02:47:05;;;;;;;7.20;6.60;;;20.90;46.40;;;;;;5041568;28;20455;-63
2024/01/20 02:49:34;;;;;;;5.87;5.40;;;20.80;46.40;;;;;;5049781;28;20521;-63
2024/01/20 02:52:03;;;;;;;5.10;4.70;;;20.80;46.50;;;;;;5044608;28;20451;-63
2024/01/20 02:54:32;;;;;;;5.97;5.47;;;20.80;46.40;;;;;;5053395;28;20445;-63
2024/01/20 02:57:01;;;;;;;5.30;4.90;;;20.80;46.40;;;;;;5052414;28;20455;-63
2024/01/20 02:59:30;;;;;;;5.87;5.13;;;20.80;46.50;;;;;;5046657;28;20967;-63
2024/01/20 03:01:58;;;;;;;5.80;5.30;;;20.80;46.40;;;;;;5050515;28;20927;-63
2024/01/20 03:04:26;;;;;;;5.37;4.97;;;20.80;46.40;;;;;;5052801;28;20464;-63
2024/01/20 03:06:55;;;;;;;5.70;5.20;;;20.80;46.40;;;;;;5050813;28;20590;-63
2024/01/20 03:09:23;;;;;;;5.57;5.07;;;20.80;46.50;;;;;;5044726;28;20454;-63
2024/01/20 03:11:51;;;;;;;5.70;5.20;;;20.80;46.40;;;;;;5035151;28;20789;-63
2024/01/20 03:14:23;;;;;;;5.60;5.10;;;20.80;46.40;;;;;;5051535;28;20597;-63
2024/01/20 03:16:52;;;;;;;5.53;5.13;;;20.70;46.40;;;;;;5051572;28;20490;-63
2024/01/20 03:19:20;;;;;;;5.90;5.27;;;20.70;46.50;;;;;;5047000;28;20908;-62
2024/01/20 03:21:49;;;;;;;5.30;4.90;;;20.70;46.40;;;;;;5043273;28;20435;-62
2024/01/20 03:24:19;;;;;;;5.57;5.17;;;20.70;46.60;;;;;;5052255;28;20863;-63
2024/01/20 03:26:48;;;;;;;5.70;5.20;;;20.70;46.60;;;;;;5048773;28;20554;-63
2024/01/20 03:29:17;;;;;;;6.33;5.83;;;20.70;46.60;;;;;;5037694;28;20532;-63
2024/01/20 03:31:47;;;;;;;5.67;5.17;;;20.70;46.60;;;;;;5051304;28;20434;-63
2024/01/20 03:34:15;;;;;;;5.50;5.10;;;20.70;46.60;;;;;;5050858;28;20466;-63
2024/01/20 03:36:43;;;;;;;5.23;4.70;;;20.60;46.60;;;;;;5057250;28;20442;-63
2024/01/20 03:39:12;;;;;;;5.77;5.27;;;20.60;46.60;;;;;;5071476;28;20423;-63
2024/01/20 03:41:40;;;;;;;5.63;5.20;;;20.60;46.60;;;;;;5068058;28;20467;-63
2024/01/20 03:44:09;;;;;;;5.17;4.73;;;20.60;46.60;;;;;;5030884;28;20447;-63
2024/01/20 03:46:37;;;;;;;4.30;3.90;;;20.60;46.60;;;;;;5032044;28;20522;-64
2024/01/20 03:49:06;;;;;;;4.67;4.27;;;20.60;46.60;;;;;;5046496;28;20440;-63
2024/01/20 03:51:35;;;;;;;4.60;4.20;;;20.60;46.60;;;;;;5050345;28;20436;-63
2024/01/20 03:54:04;;;;;;;4.90;4.57;;;20.60;46.60;;;;;;5050820;28;20451;-63
2024/01/20 03:56:32;;;;;;;4.97;4.50;;;20.60;46.60;;;;;;5050713;28;20512;-62
2024/01/20 03:59:01;;;;;;;4.40;4.00;;;20.60;46.60;;;;;;5048894;28;20884;-63
2024/01/20 04:01:29;;;;;;;5.00;4.50;;;20.50;46.70;;;;;;5042079;28;20480;-63
2024/01/20 04:03:57;;;;;;;4.23;3.83;;;20.50;46.70;;;;;;5030953;28;20432;-63
2024/01/20 04:06:27;;;;;;;4.47;4.07;;;20.50;46.60;;;;;;5037890;28;20469;-63
2024/01/20 04:08:55;;;;;;;4.77;4.37;;;20.50;46.70;;;;;;5050561;28;20498;-63
2024/01/20 04:11:23;;;;;;;4.40;4.03;;;20.50;46.70;;;;;;5046778;28;20480;-63
2024/01/20 04:13:52;;;;;;;4.67;4.37;;;20.50;46.70;;;;;;5050292;28;20427;-63
2024/01/20 04:16:20;;;;;;;4.50;4.13;;;20.50;46.70;;;;;;5051005;28;20463;-63
2024/01/20 04:18:48;;;;;;;5.40;4.20;;;20.50;46.70;;;;;;5049595;28;20456;-62
2024/01/20 04:21:17;;;;;;;3.67;3.37;;;20.50;46.50;;;;;;5050579;28;20470;-62
2024/01/20 04:23:46;;;;;;;4.33;4.03;;;20.40;46.50;;;;;;5050812;28;20439;-62
2024/01/20 04:26:14;;;;;;;5.20;4.80;;;20.50;46.40;;;;;;5050501;28;21010;-62
2024/01/20 04:28:43;;;;;;;4.60;4.30;;;20.50;46.30;;;;;;5050966;28;20424;-63
2024/01/20 04:31:11;;;;;;;4.43;4.10;;;20.50;46.30;;;;;;5049785;28;20456;-63
2024/01/20 04:33:40;;;;;;;4.17;3.67;;;20.50;46.20;;;;;;5048285;28;20538;-63
2024/01/20 04:36:09;;;;;;;4.60;4.20;;;20.50;46.10;;;;;;5050300;28;20918;-63
2024/01/20 04:38:37;;;;;;;4.40;3.87;;;20.60;46.10;;;;;;5051706;28;20431;-63
2024/01/20 04:41:07;;;;;;;4.20;3.80;;;20.60;46.00;;;;;;5054399;28;20475;-63
2024/01/20 04:43:35;;;;;;;4.40;4.00;;;20.60;46.00;;;;;;5063820;28;20790;-63
2024/01/20 04:46:04;;;;;;;4.70;4.30;;;20.60;45.90;;;;;;5040393;28;20451;-63
2024/01/20 04:48:32;;;;;;;3.63;3.33;;;20.60;45.90;;;;;;5047986;28;20958;-63
2024/01/20 04:51:00;;;;;;;4.37;4.00;;;20.70;45.90;;;;;;5033587;28;20436;-63
2024/01/20 04:53:29;;;;;;;4.70;4.20;;;20.70;45.80;;;;;;5051681;28;20458;-63
2024/01/20 04:55:57;;;;;;;4.17;3.90;;;20.70;45.80;;;;;;5053913;28;20494;-63
2024/01/20 04:58:27;;;;;;;4.03;3.73;;;20.70;45.70;;;;;;5047923;28;20438;-62
2024/01/20 05:00:55;;;;;;;3.50;3.30;;;20.70;45.60;;;;;;5043998;28;20480;-63
2024/01/20 05:03:23;;;;;;;4.60;3.90;;;20.80;45.60;;;;;;5053618;28;20442;-63
2024/01/20 05:05:51;;;;;;;4.57;4.27;;;20.80;45.50;;;;;;5053015;28;20435;-63
2024/01/20 05:08:20;;;;;;;4.30;3.90;;;20.80;45.50;;;;;;5048130;28;20554;-63
2024/01/20 05:10:48;;;;;;;4.00;3.70;;;20.80;45.50;;;;;;5053708;28;20435;-63
2024/01/20 05:13:16;;;;;;;3.67;3.37;;;20.80;45.50;;;;;;5052435;28;20458;-63
2024/01/20 05:15:46;;;;;;;3.20;2.93;;;20.90;45.50;;;;;;5052793;28;20428;-63
2024/01/20 05:18:14;;;;;;;5.40;5.00;;;20.90;45.50;;;;;;5053319;28;20932;-62
2024/01/20 05:20:42;;;;;;;4.40;4.00;;;20.90;45.40;;;;;;5052337;28;20783;-63
2024/01/20 05:23:10;;;;;;;3.70;3.40;;;20.90;45.40;;;;;;5051758;28;20435;-63
2024/01/20 05:25:38;;;;;;;4.50;4.17;;;21.00;45.40;;;;;;5053382;28;20459;-63
2024/01/20 05:28:07;;;;;;;4.03;3.73;;;21.00;45.40;;;;;;5053381;28;20431;-63
2024/01/20 05:30:35;;;;;;;4.00;3.70;;;21.00;45.40;;;;;;5050803;28;20511;-63
2024/01/20 05:33:05;;;;;;;4.07;3.70;;;21.00;45.30;;;;;;5048120;28;20441;-63
2024/01/20 05:35:33;;;;;;;4.33;3.93;;;21.00;45.30;;;;;;5052086;28;20963;-63
2024/01/20 05:38:01;;;;;;;3.60;3.30;;;21.10;45.20;;;;;;5052803;28;20432;-63
2024/01/20 05:40:29;;;;;;;5.00;4.60;;;21.10;45.10;;;;;;5048859;28;20461;-63
2024/01/20 05:42:57;;;;;;;3.90;3.60;;;21.10;45.00;;;;;;5052610;28;21033;-63
2024/01/20 05:45:25;;;;;;;4.07;3.77;;;21.10;45.00;;;;;;5053445;28;20899;-63
2024/01/20 05:47:54;;;;;;;3.87;3.60;;;21.10;44.90;;;;;;5053196;28;20444;-63
2024/01/20 05:50:23;;;;;;;4.47;4.07;;;21.10;44.90;;;;;;5051537;28;20885;-63
2024/01/20 05:52:52;;;;;;;3.97;3.43;;;21.10;44.80;;;;;;5053097;28;20456;-63
2024/01/20 05:55:20;;;;;;;3.47;3.27;;;21.20;44.80;;;;;;5053178;28;20859;-63
2024/01/20 05:57:48;;;;;;;4.47;4.17;;;21.10;44.80;;;;;;5040421;28;20935;-63
2024/01/20 06:00:19;;;;;;;3.37;3.17;;;21.10;44.80;;;;;;5031375;28;21691;-63
2024/01/20 06:02:47;;;;;;;4.67;4.27;;;21.10;44.80;;;;;;5063480;28;20476;-63
2024/01/20 06:05:15;;;;;;;4.47;4.07;;;21.10;44.90;;;;;;5051613;28;20443;-63
2024/01/20 06:07:45;;;;;;;3.20;3.00;;;21.00;44.90;;;;;;5046409;28;20538;-63
2024/01/20 06:10:14;;;;;;;3.83;3.53;;;21.00;44.90;;;;;;5052694;28;20418;-63
2024/01/20 06:12:42;;;;;;;3.67;3.37;;;21.00;45.00;;;;;;5052292;28;20436;-63
2024/01/20 06:15:11;;;;;;;3.77;3.47;;;21.00;45.00;;;;;;5053101;28;20515;-63
2024/01/20 06:17:39;;;;;;;3.90;3.60;;;21.00;45.10;;;;;;5040627;28;20569;-63
2024/01/20 06:20:08;;;;;;;4.30;3.90;;;21.00;45.10;;;;;;5049948;28;20931;-63
2024/01/20 06:22:39;;;;;;;3.07;2.87;;;21.00;45.10;;;;;;5052782;28;20464;-63
2024/01/20 06:25:09;;;;;;;4.20;3.87;;;21.00;45.10;;;;;;5052552;28;20432;-63
2024/01/20 06:27:37;;;;;;;3.80;3.50;;;21.00;45.10;;;;;;5052051;28;20522;-63
2024/01/20 06:30:07;;;;;;;3.50;3.30;;;21.00;45.10;;;;;;5034350;28;20426;-63
2024/01/20 06:32:35;;;;;;;3.00;2.80;;;21.00;45.00;;;;;;5038440;28;20448;-63
2024/01/20 06:35:04;;;;;;;3.43;3.13;;;21.10;45.00;;;;;;5049515;28;20954;-63
2024/01/20 06:37:32;;;;;;;3.37;3.17;;;21.00;45.00;;;;;;5039008;28;20448;-64
2024/01/20 06:40:01;;;;;;;3.30;3.10;;;21.00;45.00;;;;;;5039497;28;20444;-63
2024/01/20 06:42:30;;;;;;;3.57;3.27;;;21.10;45.00;;;;;;5052201;28;20504;-63
2024/01/20 06:44:58;;;;;;;3.50;3.20;;;21.10;45.00;;;;;;5054659;28;20484;-63
2024/01/20 06:47:29;;;;;;;3.93;3.63;;;21.10;44.90;;;;;;5051980;28;20452;-63
2024/01/20 06:49:58;;;;;;;3.53;3.23;;;21.10;44.90;;;;;;5047718;28;20806;-63
2024/01/20 06:52:29;;;;;;;4.13;3.83;;;21.10;44.90;;;;;;5037463;28;20443;-63
2024/01/20 06:54:57;;;;;;;3.53;3.33;;;21.10;44.90;;;;;;5051956;28;20446;-63
2024/01/20 06:57:26;;;;;;;4.17;3.87;;;21.10;44.80;;;;;;5041883;28;20448;-63
2024/01/20 06:59:55;;;;;;;4.00;3.70;;;21.10;44.80;;;;;;5052233;28;20447;-63
2024/01/20 07:02:23;;;;;;;3.33;3.03;;;21.10;44.90;;;;;;5048047;28;20547;-63
2024/01/20 07:04:51;;;;;;;3.43;3.13;;;21.10;44.80;;;;;;5033477;28;20510;-63
2024/01/20 07:07:20;;;;;;;3.23;2.93;;;21.10;44.80;;;;;;5048756;28;20481;-63
2024/01/20 07:09:48;;;;;;;3.00;2.80;;;21.10;44.80;;;;;;5041587;28;20508;-63
2024/01/20 07:12:16;;;;;;;4.07;2.77;;;21.10;44.80;;;;;;5050362;28;20826;-63
2024/01/20 07:14:44;;;;;;;3.30;3.10;;;21.10;44.80;;;;;;5050487;28;20511;-63
2024/01/20 07:17:14;;;;;;;4.03;3.73;;;21.10;44.90;;;;;;5048716;28;20828;-63
2024/01/20 07:19:42;;;;;;;3.90;3.53;;;21.00;44.90;;;;;;5064173;28;20486;-63
2024/01/20 07:22:10;;;;;;;3.10;2.90;;;21.10;44.90;;;;;;5043166;28;20788;-63
2024/01/20 07:24:39;;;;;;;3.83;3.53;;;21.00;45.00;;;;;;5046301;28;20443;-63
2024/01/20 07:27:07;;;;;;;3.17;2.87;;;21.10;45.00;;;;;;5051024;28;20448;-62
2024/01/20 07:29:35;;;;;;;3.30;3.00;;;21.10;45.00;;;;;;5051300;28;20884;-63
2024/01/20 07:32:04;;;;;;;3.10;2.90;;;21.10;45.00;;;;;;5033647;28;20439;-63
2024/01/20 07:34:33;;;;;;;3.43;3.17;;;21.10;45.00;;;;;;5049140;28;20499;-63
2024/01/20 07:37:02;;;;;;;3.53;3.23;;;21.10;45.00;;;;;;5050568;28;20518;-63
2024/01/20 07:39:30;;;;;;;3.10;2.90;;;21.10;45.00;;;;;;5051068;28;21358;-63
2024/01/20 07:41:58;;;;;;;4.00;3.60;;;21.10;45.00;;;;;;5051371;28;20455;-63
2024/01/20 07:44:27;;;;;;;3.30;3.10;;;21.10;44.90;;;;;;5063539;28;20508;-63
2024/01/20 07:46:55;;;;;;;3.90;3.60;;;21.10;44.90;;;;;;5033699;28;20452;-63
2024/01/20 07:49:23;;;;;;;3.00;2.80;;;21.10;44.90;;;;;;5041905;28;20450;-63
2024/01/20 07:51:53;;;;;;;2.67;2.47;;;21.20;44.90;;;;;;5049161;28;20464;-63
2024/01/20 07:54:21;;;;;;;3.20;2.90;;;21.20;44.90;;;;;;5050967;28;20915;-63
2024/01/20 07:56:50;;;;;;;3.30;3.00;;;21.10;44.90;;;;;;5054736;28;20634;-63
2024/01/20 07:59:18;;;;;;;2.77;2.57;;;21.20;44.90;;;;;;5063591;28;20446;-63
2024/01/20 08:01:46;;;;;;;3.17;2.83;;;21.10;44.90;;;;;;5046453;28;20809;-63
2024/01/20 08:04:17;;;;;;;3.80;2.50;;;21.10;44.90;;;;;;5037190;28;20936;-63
2024/01/20 08:06:45;;;;;;;2.90;2.70;;;21.10;44.90;;;;;;5038521;28;20429;-63
2024/01/20 08:09:16;;;;;;;3.40;3.20;;;21.10;44.90;;;;;;5049746;28;20447;-63
2024/01/20 08:11:45;;;;;;;3.20;2.90;;;21.10;44.90;;;;;;5049659;28;20459;-63
2024/01/20 08:14:13;;;;;;;3.10;2.90;;;21.10;44.90;;;;;;5037215;28;20805;-63
2024/01/20 08:16:41;;;;;;;2.77;2.57;;;21.10;44.90;;;;;;5051039;28;20462;-63
2024/01/20 08:19:09;;;;;;;3.70;3.40;;;21.10;44.90;;;;;;5048102;28;20461;-63
2024/01/20 08:21:38;;;;;;;3.57;3.27;;;21.10;45.00;;;;;;5040093;28;20533;-63
2024/01/20 08:24:06;;;;;;;4.20;3.87;;;21.10;45.10;;;;;;5050479;28;20479;-63
2024/01/20 08:26:36;;;;;;;2.90;2.70;;;21.10;45.20;;;;;;5049307;28;20455;-63
2024/01/20 08:29:04;;;;;;;4.73;4.13;;;21.10;45.30;;;;;;5053379;28;20445;-63
2024/01/20 08:31:32;;;;;;;3.50;3.30;;;21.10;45.40;;;;;;5045220;28;20461;-63
2024/01/20 08:34:02;;;;;;;3.40;3.10;;;21.20;45.50;;;;;;5047702;28;20455;-63
2024/01/20 08:36:31;;;;;;;2.90;2.70;;;21.20;45.40;;;;;;5045305;28;20448;-63
2024/01/20 08:38:59;;;;;;;5.83;3.70;;;21.20;45.50;;;;;;5046940;28;20520;-63
2024/01/20 08:41:27;;;;;;;3.20;2.90;;;21.20;45.60;;;;;;5039883;28;20467;-63
2024/01/20 08:43:57;;;;;;;3.37;3.07;;;21.30;45.90;;;;;;5052010;28;20476;-63
2024/01/20 08:46:26;;;;;;;3.50;3.20;;;21.20;46.10;;;;;;5052765;28;20483;-63
2024/01/20 08:48:54;;;;;;;3.40;3.10;;;21.30;46.20;;;;;;5045730;28;20495;-63
2024/01/20 08:51:22;;;;;;;3.13;2.93;;;21.30;46.30;;;;;;5038021;28;20455;-63
2024/01/20 08:53:50;;;;;;;4.30;3.63;;;21.30;46.30;;;;;;5036733;28;20485;-64
2024/01/20 08:56:21;;;;;;;3.77;3.47;;;21.30;46.20;;;;;;5039208;28;20466;-64
2024/01/20 08:58:49;;;;;;;3.87;3.57;;;21.30;46.10;;;;;;5043376;28;20957;-65
2024/01/20 09:01:19;;;;;;;3.50;3.20;;;21.30;46.30;;;;;;5042841;28;20461;-64
2024/01/20 09:03:47;;;;;;;3.67;3.37;;;21.30;46.50;;;;;;5045268;28;20475;-66
2024/01/20 09:06:16;;;;;;;3.70;3.40;;;21.30;46.60;;;;;;5053265;28;20436;-64
2024/01/20 09:08:44;;;;;;;6.47;3.90;;;21.30;46.70;;;;;;5043962;28;20494;-64
2024/01/20 09:11:12;;;;;;;4.23;3.90;;;21.30;46.70;;;;;;5050534;28;20431;-64
2024/01/20 09:13:41;;;;;;;3.43;3.10;;;21.30;46.80;;;;;;5052726;28;20533;-64
2024/01/20 09:16:09;;;;;;;3.87;3.50;;;21.40;46.80;;;;;;5053171;28;20559;-73
2024/01/20 09:18:39;;;;;;;4.60;3.63;;;21.40;46.90;;;;;;5061182;28;20879;-74
2024/01/20 09:21:11;;;;;;;4.43;3.30;;;21.40;46.80;;;;;;5049755;28;20461;-73
2024/01/20 09:23:39;;;;;;;3.73;3.43;;;21.40;46.60;;;;;;5055697;28;20564;-73
2024/01/20 09:26:08;;;;;;;6.00;3.50;;;21.40;46.40;;;;;;5054883;28;20472;-73
2024/01/20 09:28:36;;;;;;;4.30;3.90;;;21.40;46.40;;;;;;5053797;28;20460;-73
2024/01/20 09:31:04;;;;;;;4.67;3.50;;;21.40;46.40;;;;;;5055762;28;20479;-73
2024/01/20 09:33:35;;;;;;;4.17;3.07;;;21.40;46.40;;;;;;5049000;28;20452;-72
2024/01/20 09:36:06;;;;;;;4.67;3.20;;;21.40;46.40;;;;;;5055519;28;20798;-71
2024/01/20 09:38:34;;;;;;;9.07;4.20;;;21.40;46.40;;;;;;5051926;28;20444;-71
2024/01/20 09:41:09;;;;;;;5.67;5.10;;;21.40;46.40;;;;;;5049152;28;20480;-72
2024/01/20 09:43:39;;;;;;;4.30;3.50;;;21.40;46.40;;;;;;5055709;28;20951;-72
2024/01/20 09:46:08;;;;;;;7.20;3.93;;;21.40;46.40;;;;;;5049194;28;20501;-72
2024/01/20 09:48:36;;;;;;;8.37;4.30;;;21.40;46.30;;;;;;5048545;28;20464;-72
2024/01/20 09:51:08;;;;;;;8.00;3.83;;;21.40;46.30;;;;;;5049442;28;20972;-71
2024/01/20 09:53:36;;;;;;;7.03;4.40;;;21.40;46.30;;;;;;5050120;28;20514;-72
2024/01/20 09:56:05;;;;;;;6.37;3.50;;;21.50;46.20;;;;;;5066178;28;20468;-72
2024/01/20 09:58:35;;;;;;;5.07;4.03;;;21.50;46.20;;;;;;5052006;28;20455;-73
2024/01/20 10:01:04;;;;;;;4.60;3.73;;;21.50;46.20;;;;;;5053375;28;20467;-73
2024/01/20 10:03:35;;;;;;;4.80;3.50;;;21.50;46.10;;;;;;5053358;28;20539;-73
2024/01/20 10:06:04;;;;;;;3.90;3.57;;;21.60;46.10;;;;;;5060566;28;20465;-73
2024/01/20 10:08:33;;;;;;;4.43;3.53;;;21.60;46.00;;;;;;5053446;28;21047;-73
2024/01/20 10:11:06;;;;;;;5.13;3.47;;;21.60;45.90;;;;;;5063008;28;20536;-73
2024/01/20 10:13:35;;;;;;;5.97;4.43;;;21.60;45.70;;;;;;5057012;28;20527;-72
2024/01/20 10:16:03;;;;;;;8.60;4.40;;;21.60;45.60;;;;;;5058083;28;20461;-73
2024/01/20 10:18:31;;;;;;;6.23;4.23;;;21.70;45.50;;;;;;5059270;28;20491;-73
2024/01/20 10:21:03;;;;;;;4.50;4.10;;;21.70;45.40;;;;;;5059278;28;20575;-72
2024/01/20 10:23:35;;;;;;;4.17;3.70;;;21.70;45.30;;;;;;5056381;28;20488;-73
2024/01/20 10:26:03;;;;;;;5.53;4.40;;;21.70;45.40;;;;;;5059934;28;20442;-73
2024/01/20 10:28:32;;;;;;;5.00;4.40;;;21.70;45.50;;;;;;5059492;28;20950;-73
2024/01/20 10:31:07;;;;;;;4.13;3.80;;;21.70;45.60;;;;;;5054109;28;20927;-71
2024/01/20 10:33:35;;;;;;;5.50;3.73;;;21.70;45.70;;;;;;5043666;28;20459;-71
2024/01/20 10:36:05;;;;;;;6.87;4.70;;;21.70;45.80;;;;;;5054652;28;20453;-72
2024/01/20 10:38:39;;;;;;;7.33;3.90;;;21.70;45.90;;;;;;5060964;28;20451;-72
2024/01/20 10:41:09;;;;;;;5.50;4.00;;;21.70;46.00;;;;;;5057138;28;20453;-71
2024/01/20 10:43:39;;;;;;;5.60;4.13;;;21.70;45.90;;;;;;5055866;28;20445;-71
2024/01/20 10:46:15;;;;;;;7.47;4.47;;;21.70;45.70;;;;;;5062304;28;20461;-71
2024/01/20 10:48:51;;;;;;;5.47;4.37;;;21.80;45.60;;;;;;5052776;28;20437;-71
2024/01/20 10:51:25;;;;;;;5.47;4.20;;;21.80;45.50;;;;;;5051414;28;20445;-72
2024/01/20 10:53:55;;;;;;;4.50;4.10;;;21.90;45.30;;;;;;5041039;28;20451;-72
2024/01/20 10:56:24;;;;;;;4.50;3.80;;;22.00;45.10;;;;;;5047179;28;20532;-72
2024/01/20 10:58:59;;;;;;;4.93;4.53;;;22.10;44.70;;;;;;5038980;28;20552;-71
2024/01/20 11:01:28;;;;;;;4.43;4.03;;;22.30;44.50;;;;;;5038637;28;20545;-72
2024/01/20 11:03:56;;;;;;;5.57;4.00;;;22.40;43.90;;;;;;5041985;28;20824;-72
2024/01/20 11:06:25;;;;;;;3.83;3.53;;;22.60;43.80;;;;;;5036155;28;20463;-72
2024/01/20 11:08:55;;;;;;;4.93;4.27;;;22.80;43.20;;;;;;5056053;28;20971;-72
2024/01/20 11:11:27;;;;;;;4.77;4.37;;;22.90;43.20;;;;;;5056274;28;20451;-72
2024/01/20 11:13:59;;;;;;;5.07;4.30;;;23.10;42.70;;;;;;5049581;28;20473;-72
2024/01/20 11:16:30;;;;;;;4.60;4.20;;;23.20;42.70;;;;;;5047378;28;20459;-72
2024/01/20 11:19:09;;;;;;;3.80;3.60;;;23.30;42.60;;;;;;5046905;28;20947;-72
2024/01/20 11:21:38;;;;;;;4.63;4.30;;;23.30;42.80;;;;;;5053339;28;20482;-72
2024/01/20 11:24:08;;;;;;;5.93;4.40;;;23.40;42.60;;;;;;5053528;28;20498;-71
2024/01/20 11:26:38;;;;;;;4.50;4.20;;;23.50;42.10;;;;;;5051494;28;20481;-72
2024/01/20 11:29:09;;;;;;;4.67;4.27;;;23.50;42.30;;;;;;5032128;28;20450;-72
2024/01/20 11:31:37;;;;;;;5.83;4.00;;;23.60;42.10;;;;;;5031239;28;20458;-72
2024/01/20 11:34:05;;;;;;;4.50;4.10;;;23.60;41.90;;;;;;5044853;28;20489;-72
2024/01/20 11:36:35;;;;;;;4.60;4.20;;;23.70;41.90;;;;;;5047625;28;20799;-72
2024/01/20 11:39:05;;;;;;;5.00;3.70;;;23.70;42.10;;;;;;5055157;28;20459;-72
2024/01/20 11:41:35;;;;;;;3.97;3.63;;;23.70;42.30;;;;;;5042226;28;20457;-72
2024/01/20 11:44:03;;;;;;;3.70;3.40;;;23.80;42.40;;;;;;5049392;28;20462;-72
2024/01/20 11:46:32;;;;;;;3.93;3.63;;;23.80;42.50;;;;;;5045136;28;21244;-72
2024/01/20 11:49:00;;;;;;;4.90;4.50;;;23.80;42.50;;;;;;5045965;28;20813;-72
2024/01/20 11:51:28;;;;;;;3.83;3.53;;;23.80;42.20;;;;;;5042464;28;20444;-71
2024/01/20 11:53:57;;;;;;;4.23;3.83;;;23.80;42.50;;;;;;5040551;28;20535;-71
2024/01/20 11:56:25;;;;;;;3.87;3.57;;;23.80;42.50;;;;;;5048519;28;20827;-71
2024/01/20 11:58:54;;;;;;;3.87;3.50;;;23.80;42.50;;;;;;5053324;28;20785;-72
2024/01/20 12:01:23;;;;;;;3.63;3.33;;;23.80;42.60;;;;;;5057932;28;20451;-72
2024/01/20 12:03:51;;;;;;;3.30;3.10;;;23.80;42.60;;;;;;5054364;28;20914;-72
2024/01/20 12:06:20;;;;;;;5.03;3.97;;;23.80;42.60;;;;;;5057972;28;20470;-72
2024/01/20 12:08:48;;;;;;;4.07;3.67;;;23.90;42.60;;;;;;5039236;28;20482;-72
2024/01/20 12:11:20;;;;;;;4.23;3.87;;;23.90;42.60;;;;;;5049692;28;20462;-72
2024/01/20 12:13:50;;;;;;;3.57;3.27;;;23.90;42.60;;;;;;5049047;28;20469;-72
2024/01/20 12:16:19;;;;;;;3.70;3.40;;;23.90;42.80;;;;;;5049772;28;20451;-72
2024/01/20 12:18:48;;;;;;;4.10;3.80;;;24.00;42.80;;;;;;5052898;28;20454;-71
2024/01/20 12:21:17;;;;;;;3.37;3.17;;;24.00;42.80;;;;;;5050270;28;20963;-72
2024/01/20 12:23:46;;;;;;;3.33;3.13;;;24.00;42.80;;;;;;5047692;28;20951;-72
2024/01/20 12:26:16;;;;;;;3.30;3.10;;;24.00;42.80;;;;;;5043965;28;20871;-73
2024/01/20 12:28:46;;;;;;;3.33;3.03;;;24.00;42.80;;;;;;5042362;28;20451;-72
2024/01/20 12:31:15;;;;;;;3.53;3.33;;;24.00;42.80;;;;;;5052960;28;20865;-70
2024/01/20 12:33:50;;;;;;;3.47;3.13;;;24.00;42.80;;;;;;5044146;28;21263;-70
2024/01/20 12:36:19;;;;;;;5.23;3.70;;;24.00;42.80;;;;;;5040982;28;20463;-70
2024/01/20 12:38:47;;;;;;;3.70;3.40;;;24.00;42.80;;;;;;5038849;28;21013;-70
2024/01/20 12:41:16;;;;;;;6.40;3.80;;;24.00;42.80;;;;;;5057386;28;20443;-70
2024/01/20 12:43:48;;;;;;;4.23;3.93;;;24.00;42.80;;;;;;5064520;28;20437;-70
2024/01/20 12:46:17;;;;;;;3.97;3.57;;;24.00;42.80;;;;;;5059902;28;20478;-70
2024/01/20 12:48:45;;;;;;;3.23;3.00;;;24.10;42.80;;;;;;5064243;28;20439;-70
2024/01/20 12:51:15;;;;;;;4.03;3.27;;;24.10;42.80;;;;;;5053556;28;21002;-69
2024/01/20 12:53:43;;;;;;;6.67;3.50;;;24.10;42.90;;;;;;5054564;28;20541;-70